This is the latest recevied weather packets stored in our database for station/object K1ZK-13. If no packets are shown the sender has not sent any weather packets the latest 10 day(s).
| Time | Temp. | Humidity | Pressure | Rain* | Wind** | Luminosity | Snow |
|---|---|---|---|---|---|---|---|
| 1778033188 | 15.56° C | 88% | 1008 hPa | 1.27 mm | - | 0 W/m² | - |
| 1778032886 | 15.56° C | 87% | 1007.9 hPa | 1.27 mm | - | 0 W/m² | - |
| 1778032583 | 16.11° C | 87% | 1008 hPa | 0 mm | - | 0 W/m² | - |
| 1778030153 | 15.56° C | 92% | 1007.4 hPa | 1.78 mm | - | 0 W/m² | - |
| 1778029849 | 15.56° C | 92% | 1006.8 hPa | 1.78 mm | - | 0 W/m² | - |
| 1778010759 | 19.44° C | 73% | 1003.4 hPa | 11.94 mm | - | 62 W/m² | - |
| 1778010457 | 19.44° C | 73% | 1003.1 hPa | 11.94 mm | - | 62 W/m² | - |
| 1778006823 | 23.33° C | 54% | 1002.7 hPa | 0 mm | - | 16 W/m² | - |
| 1778006521 | 23.33° C | 54% | 1002.9 hPa | 0 mm | - | 16 W/m² | - |
| 1778004096 | 23.33° C | 51% | 1001.7 hPa | 0 mm | - | 100 W/m² | - |
| 1778003792 | 23.33° C | 51% | 1001.9 hPa | 0 mm | - | 100 W/m² | - |
| 1778002578 | 23.33° C | 52% | 1001.9 hPa | 0 mm | - | 69 W/m² | - |
| 1778002274 | 23.33° C | 52% | 1001.7 hPa | 0 mm | - | 69 W/m² | - |
| 1778001972 | 23.33° C | 53% | 1001.8 hPa | 0 mm | - | 62 W/m² | - |
| 1778001669 | 23.89° C | 51% | 1001.8 hPa | 0 mm | - | 240 W/m² | - |
| 1778001363 | 23.89° C | 51% | 1001.7 hPa | 0 mm | - | 240 W/m² | - |
| 1778001061 | 23.33° C | 52% | 1001.9 hPa | 0 mm | - | 653 W/m² | - |
| 1778000757 | 23.33° C | 52% | 1001.9 hPa | 0 mm | - | 306 W/m² | - |
| 1778000454 | 23.33° C | 52% | 1001.9 hPa | 0 mm | - | 321 W/m² | - |
| 1778000149 | 23.33° C | 54% | 1002.3 hPa | 0 mm | - | 800 W/m² | - |
| 1777999845 | 23.89° C | 52% | 1002.3 hPa | 0 mm | - | 307 W/m² | - |
| 1777999541 | 23.89° C | 54% | 1002.2 hPa | 0 mm | - | 629 W/m² | - |
| 1777999239 | 23.89° C | 52% | 1002.4 hPa | 0 mm | - | 637 W/m² | - |
| 1777998938 | 23.89° C | 52% | 1002.5 hPa | 0 mm | - | 728 W/m² | - |
| 1777998633 | 23.89° C | 52% | 1002.8 hPa | 0 mm | - | 597 W/m² | - |
* Rain latest hour (hover to see other rain measurements)
** Current wind speed in m/s (hover to see current wind gust speed)